sensor_id;sensor_type;location;lat;lon;timestamp;pressure;altitude;pressure_sealevel;temperature
65738;BMP280;52478;51.844;6.582;2024-03-23T00:53:06;100706.78;;;20.40
65738;BMP280;52478;51.844;6.582;2024-03-23T00:55:32;100709.84;;;20.37
65738;BMP280;52478;51.844;6.582;2024-03-23T00:57:58;100706.97;;;20.48
65738;BMP280;52478;51.844;6.582;2024-03-23T01:00:24;100696.13;;;20.44
65738;BMP280;52478;51.844;6.582;2024-03-23T01:02:50;100689.84;;;20.44
65738;BMP280;52478;51.844;6.582;2024-03-23T01:05:16;100684.28;;;20.44
65738;BMP280;52478;51.844;6.582;2024-03-23T01:07:42;100676.72;;;20.39
65738;BMP280;52478;51.844;6.582;2024-03-23T01:10:09;100676.72;;;20.39
65738;BMP280;52478;51.844;6.582;2024-03-23T01:12:36;100678.97;;;20.40
65738;BMP280;52478;51.844;6.582;2024-03-23T01:15:01;100671.94;;;20.39
65738;BMP280;52478;51.844;6.582;2024-03-23T01:17:28;100670.16;;;20.36
65738;BMP280;52478;51.844;6.582;2024-03-23T01:19:53;100668.16;;;20.37
65738;BMP280;52478;51.844;6.582;2024-03-23T01:22:20;100668.16;;;20.37
65738;BMP280;52478;51.844;6.582;2024-03-23T01:24:45;100677.53;;;20.34
65738;BMP280;52478;51.844;6.582;2024-03-23T01:27:13;100676.03;;;20.33
65738;BMP280;52478;51.844;6.582;2024-03-23T01:29:39;100672.22;;;20.36
65738;BMP280;52478;51.844;6.582;2024-03-23T01:32:06;100672.94;;;20.36
65738;BMP280;52478;51.844;6.582;2024-03-23T01:34:32;100672.22;;;20.36
65738;BMP280;52478;51.844;6.582;2024-03-23T01:36:59;100666.88;;;20.38
65738;BMP280;52478;51.844;6.582;2024-03-23T01:39:24;100667.94;;;20.35
65738;BMP280;52478;51.844;6.582;2024-03-23T01:41:51;100671.97;;;20.34
65738;BMP280;52478;51.844;6.582;2024-03-23T01:44:18;100663.88;;;20.36
65738;BMP280;52478;51.844;6.582;2024-03-23T01:46:44;100663.06;;;20.41
65738;BMP280;52478;51.844;6.582;2024-03-23T01:49:10;100657.50;;;20.41
65738;BMP280;52478;51.844;6.582;2024-03-23T01:51:37;100659.50;;;20.40
65738;BMP280;52478;51.844;6.582;2024-03-23T01:54:03;100653.44;;;20.42
65738;BMP280;52478;51.844;6.582;2024-03-23T01:56:30;100656.00;;;20.40
65738;BMP280;52478;51.844;6.582;2024-03-23T01:58:58;100656.72;;;20.40
65738;BMP280;52478;51.844;6.582;2024-03-23T02:01:25;100648.69;;;20.37
65738;BMP280;52478;51.844;6.582;2024-03-23T02:03:51;100643.66;;;20.35
65738;BMP280;52478;51.844;6.582;2024-03-23T02:06:17;100645.41;;;20.38
65738;BMP280;52478;51.844;6.582;2024-03-23T02:08:43;100651.44;;;20.42
65738;BMP280;52478;51.844;6.582;2024-03-23T02:11:10;100650.66;;;20.42
65738;BMP280;52478;51.844;6.582;2024-03-23T02:13:35;100648.16;;;20.44
65738;BMP280;52478;51.844;6.582;2024-03-23T02:16:02;100659.00;;;20.42
65738;BMP280;52478;51.844;6.582;2024-03-23T02:18:29;100643.84;;;20.43
65738;BMP280;52478;51.844;6.582;2024-03-23T02:20:55;100647.88;;;20.42
65738;BMP280;52478;51.844;6.582;2024-03-23T02:23:22;100633.00;;;20.39
65738;BMP280;52478;51.844;6.582;2024-03-23T02:25:49;100624.44;;;20.37
65738;BMP280;52478;51.844;6.582;2024-03-23T02:28:15;100601.44;;;20.37
65738;BMP280;52478;51.844;6.582;2024-03-23T02:30:42;100604.00;;;20.35
65738;BMP280;52478;51.844;6.582;2024-03-23T02:33:07;100623.50;;;20.29
65738;BMP280;52478;51.844;6.582;2024-03-23T02:35:34;100630.41;;;20.23
65738;BMP280;52478;51.844;6.582;2024-03-23T02:38:00;100628.91;;;20.22
65738;BMP280;52478;51.844;6.582;2024-03-23T02:40:28;100626.78;;;20.28
65738;BMP280;52478;51.844;6.582;2024-03-23T02:42:53;100632.34;;;20.28
65738;BMP280;52478;51.844;6.582;2024-03-23T02:45:20;100632.16;;;20.26
65738;BMP280;52478;51.844;6.582;2024-03-23T02:47:45;100621.53;;;20.24
65738;BMP280;52478;51.844;6.582;2024-03-23T02:50:12;100625.84;;;20.20
65738;BMP280;52478;51.844;6.582;2024-03-23T02:52:37;100613.25;;;20.19
65738;BMP280;52478;51.844;6.582;2024-03-23T02:55:04;100613.03;;;20.17
65738;BMP280;52478;51.844;6.582;2024-03-23T02:57:32;100616.78;;;20.19
65738;BMP280;52478;51.844;6.582;2024-03-23T02:59:59;100619.50;;;20.25
65738;BMP280;52478;51.844;6.582;2024-03-23T03:02:24;100615.47;;;20.26
65738;BMP280;52478;51.844;6.582;2024-03-23T03:04:51;100618.97;;;20.26
65738;BMP280;52478;51.844;6.582;2024-03-23T03:07:16;100621.28;;;20.22
65738;BMP280;52478;51.844;6.582;2024-03-23T03:09:43;100617.19;;;20.29
65738;BMP280;52478;51.844;6.582;2024-03-23T03:12:08;100618.69;;;20.30
65738;BMP280;52478;51.844;6.582;2024-03-23T03:14:36;100616.13;;;20.32
65738;BMP280;52478;51.844;6.582;2024-03-23T03:17:01;100607.56;;;20.30
65738;BMP280;52478;51.844;6.582;2024-03-23T03:19:28;100613.72;;;20.23
65738;BMP280;52478;51.844;6.582;2024-03-23T03:21:53;100611.44;;;20.21
65738;BMP280;52478;51.844;6.582;2024-03-23T03:24:20;100611.16;;;20.25
65738;BMP280;52478;51.844;6.582;2024-03-23T03:26:45;100606.66;;;20.22
65738;BMP280;52478;51.844;6.582;2024-03-23T03:29:12;100606.19;;;20.18
65738;BMP280;52478;51.844;6.582;2024-03-23T03:31:39;100615.81;;;20.17
65738;BMP280;52478;51.844;6.582;2024-03-23T03:34:05;100616.25;;;20.21
65738;BMP280;52478;51.844;6.582;2024-03-23T03:36:31;100608.72;;;20.16
65738;BMP280;52478;51.844;6.582;2024-03-23T03:38:57;100607.69;;;20.19
65738;BMP280;52478;51.844;6.582;2024-03-23T03:41:22;100598.81;;;20.20
65738;BMP280;52478;51.844;6.582;2024-03-23T03:43:49;100596.75;;;20.26
65738;BMP280;52478;51.844;6.582;2024-03-23T03:46:14;100593.44;;;20.28
65738;BMP280;52478;51.844;6.582;2024-03-23T03:48:42;100600.31;;;20.27
65738;BMP280;52478;51.844;6.582;2024-03-23T03:51:10;100599.56;;;20.21
65738;BMP280;52478;51.844;6.582;2024-03-23T03:53:36;100595.53;;;20.22
65738;BMP280;52478;51.844;6.582;2024-03-23T03:56:02;100598.06;;;20.20
65738;BMP280;52478;51.844;6.582;2024-03-23T03:58:28;100585.47;;;20.19
65738;BMP280;52478;51.844;6.582;2024-03-23T04:00:54;100595.06;;;20.18
65738;BMP280;52478;51.844;6.582;2024-03-23T04:03:20;100591.59;;;20.12
65738;BMP280;52478;51.844;6.582;2024-03-23T04:05:51;100589.56;;;20.12
65738;BMP280;52478;51.844;6.582;2024-03-23T04:08:18;100586.28;;;20.14
65738;BMP280;52478;51.844;6.582;2024-03-23T04:10:43;100595.06;;;20.18
65738;BMP280;52478;51.844;6.582;2024-03-23T04:13:09;100597.84;;;20.18
65738;BMP280;52478;51.844;6.582;2024-03-23T04:15:35;100585.00;;;20.15
65738;BMP280;52478;51.844;6.582;2024-03-23T04:18:01;100588.53;;;20.15
65738;BMP280;52478;51.844;6.582;2024-03-23T04:20:27;100582.47;;;20.17
65738;BMP280;52478;51.844;6.582;2024-03-23T04:22:56;100588.00;;;20.17
65738;BMP280;52478;51.844;6.582;2024-03-23T04:25:21;100576.44;;;20.13
65738;BMP280;52478;51.844;6.582;2024-03-23T04:27:48;100585.00;;;20.15
65738;BMP280;52478;51.844;6.582;2024-03-23T04:30:13;100572.06;;;20.17
65738;BMP280;52478;51.844;6.582;2024-03-23T04:32:40;100575.19;;;20.08
65738;BMP280;52478;51.844;6.582;2024-03-23T04:35:07;100585.28;;;20.11
65738;BMP280;52478;51.844;6.582;2024-03-23T04:37:35;100581.19;;;20.18
65738;BMP280;52478;51.844;6.582;2024-03-23T04:40:03;100570.91;;;20.08
65738;BMP280;52478;51.844;6.582;2024-03-23T04:42:30;100573.19;;;20.09
65738;BMP280;52478;51.844;6.582;2024-03-23T04:44:57;100581.53;;;20.09
65738;BMP280;52478;51.844;6.582;2024-03-23T04:47:23;100580.72;;;20.14
65738;BMP280;52478;51.844;6.582;2024-03-23T04:49:50;100580.72;;;20.14
65738;BMP280;52478;51.844;6.582;2024-03-23T04:52:17;100586.03;;;20.12
65738;BMP280;52478;51.844;6.582;2024-03-23T04:54:43;100581.91;;;20.18
65738;BMP280;52478;51.844;6.582;2024-03-23T04:57:12;100582.47;;;20.17
65738;BMP280;52478;51.844;6.582;2024-03-23T04:59:37;100575.31;;;20.21
65738;BMP280;52478;51.844;6.582;2024-03-23T05:02:03;100576.91;;;20.17
65738;BMP280;52478;51.844;6.582;2024-03-23T05:04:29;100574.56;;;20.21
65738;BMP280;52478;51.844;6.582;2024-03-23T05:06:57;100566.69;;;20.25
65738;BMP280;52478;51.844;6.582;2024-03-23T05:09:22;100566.47;;;20.23
65738;BMP280;52478;51.844;6.582;2024-03-23T05:11:49;100576.91;;;20.17
65738;BMP280;52478;51.844;6.582;2024-03-23T05:14:16;100568.03;;;20.18
65738;BMP280;52478;51.844;6.582;2024-03-23T05:16:42;100564.25;;;20.16
65738;BMP280;52478;51.844;6.582;2024-03-23T05:19:08;100573.03;;;20.20
65738;BMP280;52478;51.844;6.582;2024-03-23T05:21:34;100573.25;;;20.27
65738;BMP280;52478;51.844;6.582;2024-03-23T05:24:00;100567.44;;;20.25
65738;BMP280;52478;51.844;6.582;2024-03-23T05:26:27;100575.59;;;20.23
65738;BMP280;52478;51.844;6.582;2024-03-23T05:28:53;100576.09;;;20.22
65738;BMP280;52478;51.844;6.582;2024-03-23T05:31:24;100573.59;;;20.18
65738;BMP280;52478;51.844;6.582;2024-03-23T05:33:50;100580.41;;;20.17
65738;BMP280;52478;51.844;6.582;2024-03-23T05:36:17;100567.59;;;20.14
65738;BMP280;52478;51.844;6.582;2024-03-23T05:38:42;100582.47;;;20.17
65738;BMP280;52478;51.844;6.582;2024-03-23T05:41:09;100579.59;;;20.22
65738;BMP280;52478;51.844;6.582;2024-03-23T05:43:34;100587.72;;;20.20
65738;BMP280;52478;51.844;6.582;2024-03-23T05:46:01;100585.47;;;20.19
65738;BMP280;52478;51.844;6.582;2024-03-23T05:48:28;100573.88;;;20.15
65738;BMP280;52478;51.844;6.582;2024-03-23T05:50:56;100581.53;;;20.09
65738;BMP280;52478;51.844;6.582;2024-03-23T05:53:21;100576.44;;;20.13
65738;BMP280;52478;51.844;6.582;2024-03-23T05:55:48;100587.06;;;20.09
65738;BMP280;52478;51.844;6.582;2024-03-23T05:58:15;100587.53;;;20.13
65738;BMP280;52478;51.844;6.582;2024-03-23T06:00:41;100581.22;;;20.12
65738;BMP280;52478;51.844;6.582;2024-03-23T06:03:07;100582.69;;;20.19
65738;BMP280;52478;51.844;6.582;2024-03-23T06:05:35;100592.28;;;20.18
65738;BMP280;52478;51.844;6.582;2024-03-23T06:08:01;100591.03;;;20.19
65738;BMP280;52478;51.844;6.582;2024-03-23T06:10:27;100592.97;;;20.24
65738;BMP280;52478;51.844;6.582;2024-03-23T06:12:53;100596.75;;;20.26
65738;BMP280;52478;51.844;6.582;2024-03-23T06:15:19;100595.66;;;20.35
65738;BMP280;52478;51.844;6.582;2024-03-23T06:17:45;100593.31;;;20.39
65738;BMP280;52478;51.844;6.582;2024-03-23T06:20:12;100597.84;;;20.42
65738;BMP280;52478;51.844;6.582;2024-03-23T06:22:39;100596.03;;;20.44
65738;BMP280;52478;51.844;6.582;2024-03-23T06:25:06;100593.44;;;20.52
65738;BMP280;52478;51.844;6.582;2024-03-23T06:27:32;100589.81;;;20.57
65738;BMP280;52478;51.844;6.582;2024-03-23T06:29:58;100583.00;;;20.58
65738;BMP280;52478;51.844;6.582;2024-03-23T06:32:24;100585.56;;;20.56
65738;BMP280;52478;51.844;6.582;2024-03-23T06:34:50;100583.28;;;20.54
65738;BMP280;52478;51.844;6.582;2024-03-23T06:37:16;100588.25;;;20.61
65738;BMP280;52478;51.844;6.582;2024-03-23T06:39:45;100587.59;;;20.74
65738;BMP280;52478;51.844;6.582;2024-03-23T06:42:11;100584.22;;;20.81
65738;BMP280;52478;51.844;6.582;2024-03-23T06:44:37;100588.97;;;20.86
65738;BMP280;52478;51.844;6.582;2024-03-23T06:47:03;100594.38;;;20.97
65738;BMP280;52478;51.844;6.582;2024-03-23T06:49:29;100592.22;;;21.08
65738;BMP280;52478;51.844;6.582;2024-03-23T06:51:55;100602.16;;;21.17
65738;BMP280;52478;51.844;6.582;2024-03-23T06:54:21;100593.25;;;21.23
65738;BMP280;52478;51.844;6.582;2024-03-23T06:56:48;100597.13;;;21.33
65738;BMP280;52478;51.844;6.582;2024-03-23T06:59:14;100606.19;;;21.39
65738;BMP280;52478;51.844;6.582;2024-03-23T07:01:40;100603.53;;;21.47
65738;BMP280;52478;51.844;6.582;2024-03-23T07:04:07;100604.03;;;21.45
65738;BMP280;52478;51.844;6.582;2024-03-23T07:06:33;100600.63;;;21.39
65738;BMP280;52478;51.844;6.582;2024-03-23T07:08:59;100616.69;;;21.46
65738;BMP280;52478;51.844;6.582;2024-03-23T07:11:25;100615.25;;;21.58
65738;BMP280;52478;51.844;6.582;2024-03-23T07:13:53;100616.34;;;21.68
65738;BMP280;52478;51.844;6.582;2024-03-23T07:16:20;100615.69;;;21.75
65738;BMP280;52478;51.844;6.582;2024-03-23T07:18:46;100609.50;;;21.82
65738;BMP280;52478;51.844;6.582;2024-03-23T07:21:12;100598.34;;;21.82
65738;BMP280;52478;51.844;6.582;2024-03-23T07:23:41;100604.25;;;21.79
65738;BMP280;52478;51.844;6.582;2024-03-23T07:26:09;100598.06;;;21.86
65738;BMP280;52478;51.844;6.582;2024-03-23T07:28:36;100596.44;;;21.90
65738;BMP280;52478;51.844;6.582;2024-03-23T07:31:05;100587.22;;;21.82
65738;BMP280;52478;51.844;6.582;2024-03-23T07:33:32;100594.09;;;21.94
65738;BMP280;52478;51.844;6.582;2024-03-23T07:35:58;100590.66;;;21.88
65738;BMP280;52478;51.844;6.582;2024-03-23T07:38:26;100592.56;;;21.80
65738;BMP280;52478;51.844;6.582;2024-03-23T07:40:52;100598.91;;;21.81
65738;BMP280;52478;51.844;6.582;2024-03-23T07:43:21;100596.22;;;21.88
65738;BMP280;52478;51.844;6.582;2024-03-23T07:45:51;100594.09;;;21.81
65738;BMP280;52478;51.844;6.582;2024-03-23T07:48:21;100586.56;;;21.76
65738;BMP280;52478;51.844;6.582;2024-03-23T07:50:56;100589.34;;;21.76
65738;BMP280;52478;51.844;6.582;2024-03-23T07:53:22;100592.78;;;21.82
65738;BMP280;52478;51.844;6.582;2024-03-23T07:55:53;100583.47;;;21.80
65738;BMP280;52478;51.844;6.582;2024-03-23T07:58:20;100585.03;;;21.75
65738;BMP280;52478;51.844;6.582;2024-03-23T08:00:45;100595.22;;;21.73
65738;BMP280;52478;51.844;6.582;2024-03-23T08:03:11;100581.06;;;21.71
65738;BMP280;52478;51.844;6.582;2024-03-23T08:05:38;100595.31;;;21.67
65738;BMP280;52478;51.844;6.582;2024-03-23T08:08:05;100607.53;;;21.64
65738;BMP280;52478;51.844;6.582;2024-03-23T08:10:31;100609.09;;;21.60
65738;BMP280;52478;51.844;6.582;2024-03-23T08:12:57;100610.19;;;21.57
65738;BMP280;52478;51.844;6.582;2024-03-23T08:15:22;100597.09;;;21.52
65738;BMP280;52478;51.844;6.582;2024-03-23T08:17:49;100598.66;;;21.47
65738;BMP280;52478;51.844;6.582;2024-03-23T08:20:15;100596.97;;;21.44
65738;BMP280;52478;51.844;6.582;2024-03-23T08:22:42;100597.56;;;21.37
65738;BMP280;52478;51.844;6.582;2024-03-23T08:25:08;100595.31;;;21.36
65738;BMP280;52478;51.844;6.582;2024-03-23T08:27:34;100594.03;;;21.37
65738;BMP280;52478;51.844;6.582;2024-03-23T08:30:00;100599.66;;;21.50
65738;BMP280;52478;51.844;6.582;2024-03-23T08:32:27;100596.59;;;21.66
65738;BMP280;52478;51.844;6.582;2024-03-23T08:34:53;100587.75;;;21.81
65738;BMP280;52478;51.844;6.582;2024-03-23T08:37:19;100585.03;;;21.75
65738;BMP280;52478;51.844;6.582;2024-03-23T08:39:46;100576.28;;;21.71
65738;BMP280;52478;51.844;6.582;2024-03-23T08:42:12;100580.16;;;21.81
65738;BMP280;52478;51.844;6.582;2024-03-23T08:44:38;100585.50;;;21.92
65738;BMP280;52478;51.844;6.582;2024-03-23T08:47:05;100587.75;;;21.94
65738;BMP280;52478;51.844;6.582;2024-03-23T08:49:30;100584.84;;;21.86
65738;BMP280;52478;51.844;6.582;2024-03-23T08:51:56;100591.53;;;21.96
65738;BMP280;52478;51.844;6.582;2024-03-23T08:54:22;100598.81;;;21.99
65738;BMP280;52478;51.844;6.582;2024-03-23T08:56:50;100598.72;;;22.05
65738;BMP280;52478;51.844;6.582;2024-03-23T08:59:15;100594.50;;;21.98
65738;BMP280;52478;51.844;6.582;2024-03-23T09:01:41;100586.59;;;21.89
65738;BMP280;52478;51.844;6.582;2024-03-23T09:04:07;100590.13;;;21.90
65738;BMP280;52478;51.844;6.582;2024-03-23T09:06:33;100592.78;;;21.82
65738;BMP280;52478;51.844;6.582;2024-03-23T09:08:59;100594.28;;;21.83
65738;BMP280;52478;51.844;6.582;2024-03-23T09:11:25;100599.13;;;21.83
65738;BMP280;52478;51.844;6.582;2024-03-23T09:13:52;100596.88;;;21.94
65738;BMP280;52478;51.844;6.582;2024-03-23T09:16:18;100600.97;;;22.06
65738;BMP280;52478;51.844;6.582;2024-03-23T09:18:44;100585.09;;;22.14
65738;BMP280;52478;51.844;6.582;2024-03-23T09:21:11;100584.03;;;22.04
65738;BMP280;52478;51.844;6.582;2024-03-23T09:23:38;100587.47;;;22.10
65738;BMP280;52478;51.844;6.582;2024-03-23T09:26:04;100582.22;;;22.20
65738;BMP280;52478;51.844;6.582;2024-03-23T09:28:32;100579.44;;;22.20
65738;BMP280;52478;51.844;6.582;2024-03-23T09:31:03;100577.25;;;22.13
65738;BMP280;52478;51.844;6.582;2024-03-23T09:33:30;100582.22;;;22.07
65738;BMP280;52478;51.844;6.582;2024-03-23T09:35:55;100587.88;;;22.01
65738;BMP280;52478;51.844;6.582;2024-03-23T09:38:22;100584.88;;;21.99
65738;BMP280;52478;51.844;6.582;2024-03-23T09:40:50;100579.06;;;21.97
65738;BMP280;52478;51.844;6.582;2024-03-23T09:43:19;100573.31;;;21.95
65738;BMP280;52478;51.844;6.582;2024-03-23T09:45:45;100569.22;;;21.96
65738;BMP280;52478;51.844;6.582;2024-03-23T09:48:13;100571.81;;;22.07
65738;BMP280;52478;51.844;6.582;2024-03-23T09:50:39;100557.75;;;22.13
65738;BMP280;52478;51.844;6.582;2024-03-23T09:53:06;100561.41;;;22.08
65738;BMP280;52478;51.844;6.582;2024-03-23T09:55:32;100567.31;;;22.04
65738;BMP280;52478;51.844;6.582;2024-03-23T09:57:59;100559.25;;;22.01
65738;BMP280;52478;51.844;6.582;2024-03-23T10:00:24;100566.63;;;21.98
65738;BMP280;52478;51.844;6.582;2024-03-23T10:02:51;100565.69;;;21.96
65738;BMP280;52478;51.844;6.582;2024-03-23T10:05:21;100562.16;;;21.95
65738;BMP280;52478;51.844;6.582;2024-03-23T10:07:49;100558.41;;;21.93
65738;BMP280;52478;51.844;6.582;2024-03-23T10:10:16;100563.22;;;21.92
65738;BMP280;52478;51.844;6.582;2024-03-23T10:12:44;100561.72;;;21.91
65738;BMP280;52478;51.844;6.582;2024-03-23T10:15:15;100560.22;;;21.90
65738;BMP280;52478;51.844;6.582;2024-03-23T10:17:44;100556.16;;;21.91
65738;BMP280;52478;51.844;6.582;2024-03-23T10:20:10;100556.16;;;21.91
65738;BMP280;52478;51.844;6.582;2024-03-23T10:22:38;100566.78;;;21.93
65738;BMP280;52478;51.844;6.582;2024-03-23T10:25:07;100573.59;;;21.92
65738;BMP280;52478;51.844;6.582;2024-03-23T10:27:34;100563.00;;;21.90
65738;BMP280;52478;51.844;6.582;2024-03-23T10:30:08;100575.66;;;21.91
65738;BMP280;52478;51.844;6.582;2024-03-23T10:32:35;100583.78;;;21.89
65738;BMP280;52478;51.844;6.582;2024-03-23T10:35:14;100581.00;;;21.89
65738;BMP280;52478;51.844;6.582;2024-03-23T10:37:42;100592.91;;;21.90
65738;BMP280;52478;51.844;6.582;2024-03-23T10:40:10;100581.97;;;21.92
65738;BMP280;52478;51.844;6.582;2024-03-23T10:42:37;100582.72;;;21.92
65738;BMP280;52478;51.844;6.582;2024-03-23T10:45:04;100574.03;;;21.96
65738;BMP280;52478;51.844;6.582;2024-03-23T10:47:31;100572.97;;;21.99
65738;BMP280;52478;51.844;6.582;2024-03-23T10:49:57;100575.97;;;22.01
65738;BMP280;52478;51.844;6.582;2024-03-23T10:52:24;100572.91;;;22.04
65738;BMP280;52478;51.844;6.582;2024-03-23T10:54:51;100569.78;;;22.08
65738;BMP280;52478;51.844;6.582;2024-03-23T10:57:20;100567.50;;;22.06
65738;BMP280;52478;51.844;6.582;2024-03-23T10:59:47;100555.06;;;22.07
65738;BMP280;52478;51.844;6.582;2024-03-23T11:02:19;100564.97;;;22.08
65738;BMP280;52478;51.844;6.582;2024-03-23T11:04:44;100556.78;;;22.10
65738;BMP280;52478;51.844;6.582;2024-03-23T11:07:28;100561.84;;;22.12
65738;BMP280;52478;51.844;6.582;2024-03-23T11:09:55;100558.50;;;22.13
65738;BMP280;52478;51.844;6.582;2024-03-23T11:12:29;100557.22;;;22.14
65738;BMP280;52478;51.844;6.582;2024-03-23T11:14:59;100561.53;;;22.15
65738;BMP280;52478;51.844;6.582;2024-03-23T11:17:27;100559.69;;;22.18
65738;BMP280;52478;51.844;6.582;2024-03-23T11:19:53;100571.78;;;22.20
65738;BMP280;52478;51.844;6.582;2024-03-23T11:22:43;100548.97;;;22.22
65738;BMP280;52478;51.844;6.582;2024-03-23T11:25:13;100552.81;;;22.19
65738;BMP280;52478;51.844;6.582;2024-03-23T11:27:39;100560.97;;;22.17
65738;BMP280;52478;51.844;6.582;2024-03-23T11:30:13;100558.72;;;22.15
65738;BMP280;52478;51.844;6.582;2024-03-23T11:32:39;100553.69;;;22.14
65738;BMP280;52478;51.844;6.582;2024-03-23T11:35:06;100545.13;;;22.12
65738;BMP280;52478;51.844;6.582;2024-03-23T11:37:32;100547.16;;;22.11
65738;BMP280;52478;51.844;6.582;2024-03-23T11:39:58;100543.06;;;22.12
65738;BMP280;52478;51.844;6.582;2024-03-23T11:42:25;100546.28;;;22.16
65738;BMP280;52478;51.844;6.582;2024-03-23T11:44:51;100540.41;;;22.20
65738;BMP280;52478;51.844;6.582;2024-03-23T11:47:17;100535.78;;;22.22
65738;BMP280;52478;51.844;6.582;2024-03-23T11:49:43;100526.13;;;22.23
65738;BMP280;52478;51.844;6.582;2024-03-23T11:52:09;100540.06;;;22.23
65738;BMP280;52478;51.844;6.582;2024-03-23T11:54:35;100527.63;;;22.24
65738;BMP280;52478;51.844;6.582;2024-03-23T11:57:07;100527.84;;;22.26
65738;BMP280;52478;51.844;6.582;2024-03-23T11:59:36;100520.22;;;22.27
65738;BMP280;52478;51.844;6.582;2024-03-23T12:02:06;100516.88;;;22.28
65738;BMP280;52478;51.844;6.582;2024-03-23T12:04:32;100521.69;;;22.27
65738;BMP280;52478;51.844;6.582;2024-03-23T12:07:12;100514.66;;;22.27
65738;BMP280;52478;51.844;6.582;2024-03-23T12:09:37;100505.75;;;22.28
65738;BMP280;52478;51.844;6.582;2024-03-23T12:12:08;100501.91;;;22.31
65738;BMP280;52478;51.844;6.582;2024-03-23T12:14:35;100502.63;;;22.31
65738;BMP280;52478;51.844;6.582;2024-03-23T12:17:09;100505.41;;;22.31
65738;BMP280;52478;51.844;6.582;2024-03-23T12:19:35;100505.66;;;22.33
65738;BMP280;52478;51.844;6.582;2024-03-23T12:22:03;100502.09;;;22.33
65738;BMP280;52478;51.844;6.582;2024-03-23T12:24:29;100502.84;;;22.33
65738;BMP280;52478;51.844;6.582;2024-03-23T12:26:59;100503.59;;;22.34
65738;BMP280;52478;51.844;6.582;2024-03-23T12:29:26;100499.13;;;22.31
65738;BMP280;52478;51.844;6.582;2024-03-23T12:31:54;100489.78;;;22.28
65738;BMP280;52478;51.844;6.582;2024-03-23T12:34:19;100508.34;;;22.26
65738;BMP280;52478;51.844;6.582;2024-03-23T12:36:45;100544.34;;;22.24
65738;BMP280;52478;51.844;6.582;2024-03-23T12:39:11;100524.63;;;22.22
65738;BMP280;52478;51.844;6.582;2024-03-23T12:41:37;100534.25;;;22.21
65738;BMP280;52478;51.844;6.582;2024-03-23T12:44:03;100534.25;;;22.21
65738;BMP280;52478;51.844;6.582;2024-03-23T12:46:29;100532.06;;;22.20
65738;BMP280;52478;51.844;6.582;2024-03-23T12:48:56;100532.75;;;22.20
65738;BMP280;52478;51.844;6.582;2024-03-23T12:51:23;100551.00;;;22.21
65738;BMP280;52478;51.844;6.582;2024-03-23T12:53:48;100541.38;;;22.22
65738;BMP280;52478;51.844;6.582;2024-03-23T12:56:15;100539.84;;;22.21
65738;BMP280;52478;51.844;6.582;2024-03-23T12:58:40;100542.31;;;22.25
65738;BMP280;52478;51.844;6.582;2024-03-23T13:01:06;100518.91;;;22.27
65738;BMP280;52478;51.844;6.582;2024-03-23T13:03:32;100518.63;;;22.31
65738;BMP280;52478;51.844;6.582;2024-03-23T13:06:00;100522.13;;;22.31
65738;BMP280;52478;51.844;6.582;2024-03-23T13:08:25;100515.84;;;22.31
65738;BMP280;52478;51.844;6.582;2024-03-23T13:10:52;100517.31;;;22.32
65738;BMP280;52478;51.844;6.582;2024-03-23T13:13:17;100520.09;;;22.32
65738;BMP280;52478;51.844;6.582;2024-03-23T13:15:49;100522.91;;;22.32
65738;BMP280;52478;51.844;6.582;2024-03-23T13:18:15;100514.00;;;22.33
65738;BMP280;52478;51.844;6.582;2024-03-23T13:20:41;100516.25;;;22.35
65738;BMP280;52478;51.844;6.582;2024-03-23T13:23:08;100514.75;;;22.34
65738;BMP280;52478;51.844;6.582;2024-03-23T13:25:34;100519.03;;;22.35
65738;BMP280;52478;51.844;6.582;2024-03-23T13:28:01;100516.97;;;22.35
65738;BMP280;52478;51.844;6.582;2024-03-23T13:30:27;100514.97;;;22.36
65738;BMP280;52478;51.844;6.582;2024-03-23T13:32:53;100511.66;;;22.37
65738;BMP280;52478;51.844;6.582;2024-03-23T13:35:19;100508.09;;;22.37
65738;BMP280;52478;51.844;6.582;2024-03-23T13:37:44;100494.34;;;22.39
65738;BMP280;52478;51.844;6.582;2024-03-23T13:40:12;100499.91;;;22.39
65738;BMP280;52478;51.844;6.582;2024-03-23T13:42:38;100484.72;;;22.40
65738;BMP280;52478;51.844;6.582;2024-03-23T13:45:05;100489.34;;;22.37
65738;BMP280;52478;51.844;6.582;2024-03-23T13:47:31;100486.84;;;22.34
65738;BMP280;52478;51.844;6.582;2024-03-23T13:49:57;100490.94;;;22.33
65738;BMP280;52478;51.844;6.582;2024-03-23T13:52:23;100493.53;;;22.31
65738;BMP280;52478;51.844;6.582;2024-03-23T13:54:51;100485.69;;;22.29
65738;BMP280;52478;51.844;6.582;2024-03-23T13:57:18;100492.00;;;22.30
65738;BMP280;52478;51.844;6.582;2024-03-23T13:59:46;100484.94;;;22.29
65738;BMP280;52478;51.844;6.582;2024-03-23T14:02:12;100494.78;;;22.30
65738;BMP280;52478;51.844;6.582;2024-03-23T14:04:39;100503.16;;;22.30
65738;BMP280;52478;51.844;6.582;2024-03-23T14:07:05;100496.50;;;22.33
65738;BMP280;52478;51.844;6.582;2024-03-23T14:09:32;100495.22;;;22.34
65738;BMP280;52478;51.844;6.582;2024-03-23T14:11:58;100495.22;;;22.34
65738;BMP280;52478;51.844;6.582;2024-03-23T14:14:26;100506.16;;;22.32
65738;BMP280;52478;51.844;6.582;2024-03-23T14:16:52;100501.91;;;22.31
65738;BMP280;52478;51.844;6.582;2024-03-23T14:19:19;100517.09;;;22.30
65738;BMP280;52478;51.844;6.582;2024-03-23T14:21:45;100505.75;;;22.28
65738;BMP280;52478;51.844;6.582;2024-03-23T14:24:11;100512.38;;;22.25
65738;BMP280;52478;51.844;6.582;2024-03-23T14:26:36;100515.19;;;22.25
65738;BMP280;52478;51.844;6.582;2024-03-23T14:29:03;100506.81;;;22.25
65738;BMP280;52478;51.844;6.582;2024-03-23T14:31:30;100508.09;;;22.24
65738;BMP280;52478;51.844;6.582;2024-03-23T14:33:57;100504.03;;;22.25
65738;BMP280;52478;51.844;6.582;2024-03-23T14:36:22;100509.84;;;22.27
65738;BMP280;52478;51.844;6.582;2024-03-23T14:38:50;100496.09;;;22.29
65738;BMP280;52478;51.844;6.582;2024-03-23T14:41:15;100490.50;;;22.29
65738;BMP280;52478;51.844;6.582;2024-03-23T14:43:42;100484.94;;;22.29
65738;BMP280;52478;51.844;6.582;2024-03-23T14:46:10;100479.34;;;22.29